CheckWX is a tool to help pilots better visualize weather data.  It is not intended as a substitute for an official pre-flight weather briefing.

12:02:58 UTC

KFSW METAR
Fort Madison Municipal Airport
Fort Madison, Iowa, USA
Current

2 hours ago

KFSW 060955Z AUTO 14003KT 10SM 07/04 A3007 RMK AO2
Observed
Apr-6 @ 09:55 UTC
Wind
  • 140° at 3 KTS
Visibility
Cloud Levels
Temperature
C / 45°F
Dewpoint
C / 39°F
Humidity
81%
Altimeter
30.07" Hg
Pressure
1018.32 hPa
Previous

2 hours ago

KFSW 060935Z AUTO 11004KT 10SM 07/03 A3007 RMK AO2
Observed
Apr-6 @ 09:35 UTC
Wind
  • 110° at 4 KTS
Visibility
Cloud Levels
Temperature
C / 45°F
Dewpoint
C / 37°F
Humidity
76%
Altimeter
30.07" Hg
Pressure
1018.32 hPa
Previous

3 hours ago

KFSW 060915Z AUTO 00000KT 10SM 07/03 A3008 RMK AO2
Observed
Apr-6 @ 09:15 UTC
Visibility
Cloud Levels
Temperature
C / 45°F
Dewpoint
C / 37°F
Humidity
76%
Altimeter
30.08" Hg
Pressure
1018.62 hPa